Al Cenac — WDD5445 — position and weather

sailwx.info

Track history (hours):
 
Tides and Currents Weather Stations Pressure Air Temp Water Temp Dewpoint Dewpoint Depression Visibility Wind Speed Wind Dir Waves Ship Positions

Al Cenac

Owner: Caillou Island Towing Co, Inc., Houma, LA. More information available from US FCC via Universal Licensing System and Coast Guard Vessel Documentation Center.

Last reported at 2014-Oct-30 12:32 UTC. Time now 2014-Oct-30 13:04 UTC.
Position N 40°39' W 074°06'.

; draft 10 m.

MMSI: 367158530.

Date/timePositionNaut miles runAvg speedWind from/ knotsBaromVisibWave heightAir tempDewpointWater temp
2014-Oct-30 12:32N 40°39' W 074°06'0 0.0
2014-Oct-30 11:30N 40°39' W 074°06'0 0.0
2014-Oct-30 10:31N 40°39' W 074°06'0 0.0
2014-Oct-30 09:31N 40°39' W 074°06'0 0.0
2014-Oct-30 08:32N 40°39' W 074°06'0 0.0
2014-Oct-30 07:33N 40°39' W 074°06'0 0.0
2014-Oct-30 06:33N 40°39' W 074°06'3 2.7
2014-Oct-30 05:27N 40°42' W 074°07'3 2.6
2014-Oct-30 04:29N 40°44' W 074°06'2 2.2
2014-Oct-30 03:33N 40°42' W 074°07'4 3.8
2014-Oct-30 02:33N 40°38' W 074°08'0 0.0
2014-Oct-29 22:21N 40°38' W 074°08'0 0.0
2014-Oct-29 20:13N 40°38' W 074°08'0 0.0
2014-Oct-29 19:32N 40°38' W 074°08'0 0.0
2014-Oct-29 17:03N 40°38' W 074°08'0 0.2
2014-Oct-29 16:33N 40°39' W 074°08'3 2.9
2014-Oct-29 15:21N 40°38' W 074°12'0 0.6
2014-Oct-29 14:32N 40°38' W 074°12'2 0.2
2014-Oct-29 02:18N 40°36' W 074°12'0 0.0
2014-Oct-29 01:21N 40°36' W 074°12'0 0.0
2014-Oct-28 22:23N 40°36' W 074°12'2 0.6
2014-Oct-28 18:21N 40°38' W 074°12'2 0.4
2014-Oct-28 14:32N 40°39' W 074°10'0 0.0
2014-Oct-28 13:25N 40°39' W 074°10'2 1.4
2014-Oct-28 12:18N 40°38' W 074°08'0 0.0
2014-Oct-28 11:33N 40°38' W 074°08'0 0.0
2014-Oct-28 10:22N 40°38' W 074°08'0 0.0
2014-Oct-28 09:32N 40°38' W 074°08'0 0.0
2014-Oct-28 07:33N 40°38' W 074°08'0 0.0
2014-Oct-28 06:31N 40°38' W 074°08'0 0.0
2014-Oct-28 05:28N 40°38' W 074°08'0 0.0
2014-Oct-28 04:23N 40°38' W 074°08'0 0.0
2014-Oct-28 03:18N 40°38' W 074°08'0 0.0
2014-Oct-28 02:30N 40°38' W 074°08'0 0.0
2014-Oct-28 01:19N 40°38' W 074°08'0 0.0
2014-Oct-28 00:08N 40°38' W 074°08'0 0.0
2014-Oct-27 23:08N 40°38' W 074°08'0 0.0
2014-Oct-27 21:16N 40°38' W 074°08'0 0.0
2014-Oct-27 20:04N 40°38' W 074°08'0 0.0
2014-Oct-27 19:23N 40°38' W 074°08'0 0.0
2014-Oct-27 18:29N 40°38' W 074°08'1 1.4
2014-Oct-27 17:33N 40°39' W 074°06'7 7.4
2014-Oct-27 16:33N 40°45' W 074°01'1 1.3
2014-Oct-27 15:33N 40°46' W 074°00'6 6.0
2014-Oct-27 14:34N 40°41' W 074°03'5 4.3
2014-Oct-27 13:31N 40°38' W 074°08'0 0.0
2014-Oct-27 12:31N 40°38' W 074°08'0 0.0
2014-Oct-27 11:32N 40°38' W 074°08'0 0.0
2014-Oct-27 10:33N 40°38' W 074°08'1 1.1
2014-Oct-27 09:33N 40°39' W 074°07'0 0.1
2014-Oct-27 08:33N 40°39' W 074°06'1 0.5
2014-Oct-27 07:31N 40°39' W 074°06'0 0.0
2014-Oct-27 06:32N 40°39' W 074°06'0 0.0
2014-Oct-27 05:33N 40°39' W 074°06'1 0.5
2014-Oct-27 04:06N 40°39' W 074°07'1 1.4
2014-Oct-27 03:26N 40°38' W 074°08'0 0.0
2014-Oct-27 00:16N 40°38' W 074°08'0 0.0
2014-Oct-26 23:17N 40°38' W 074°08'0 0.0
2014-Oct-26 20:30N 40°38' W 074°08'0 0.0
2014-Oct-26 18:26N 40°38' W 074°08'0 0.0
2014-Oct-26 14:06N 40°38' W 074°08'0 0.0
2014-Oct-26 13:30N 40°38' W 074°08'4 4.1
2014-Oct-26 12:29N 40°36' W 074°12'4 2.1
2014-Oct-26 10:29N 40°38' W 074°08'0 0.0
2014-Oct-26 09:32N 40°38' W 074°08'0 0.0
2014-Oct-26 07:28N 40°38' W 074°08'0 0.0
2014-Oct-26 05:23N 40°38' W 074°08'0 0.0
2014-Oct-26 00:14N 40°38' W 074°08'2 0.4
2014-Oct-25 18:33N 40°39' W 074°05'10 9.7
2014-Oct-25 17:30N 40°47' W 073°56'2 0.7
2014-Oct-25 14:28N 40°48' W 073°54'5 5.9
2014-Oct-25 13:33N 40°44' W 073°58'3 2.6
2014-Oct-25 12:32N 40°46' W 073°60'0 0.3
2014-Oct-25 11:31N 40°46' W 074°00'5 5.0
2014-Oct-25 10:34N 40°42' W 074°00'0 0.3
2014-Oct-25 09:30N 40°41' W 074°00'0 0.0
2014-Oct-25 08:33N 40°41' W 074°00'0 0.0
2014-Oct-25 07:31N 40°41' W 074°00'0 0.0
2014-Oct-25 06:31N 40°41' W 074°00'0 0.0
2014-Oct-25 05:32N 40°41' W 074°00'0 0.0
2014-Oct-25 04:33N 40°41' W 074°00'2 2.0
2014-Oct-25 03:34N 40°43' W 073°59'3 2.6
2014-Oct-25 02:33N 40°45' W 073°58'4 4.2
2014-Oct-25 01:29N 40°41' W 074°00'0 0.0
2014-Oct-25 00:32N 40°41' W 074°00'0 0.0
2014-Oct-24 23:30N 40°41' W 074°00'3 2.7
2014-Oct-24 22:34N 40°40' W 074°03'2 1.0
2014-Oct-24 20:33N 40°39' W 074°06'4 3.2
2014-Oct-24 19:26N 40°39' W 074°10'0 0.2
2014-Oct-24 18:34N 40°39' W 074°11'2 1.0
2014-Oct-24 16:30N 40°38' W 074°08'0 0.0
2014-Oct-24 15:31N 40°38' W 074°08'0 0.0
2014-Oct-24 14:32N 40°38' W 074°08'0 0.0
2014-Oct-24 13:14N 40°38' W 074°08'4 6.6
2014-Oct-24 12:33N 40°41' W 074°03'6 5.0
2014-Oct-24 11:22N 40°46' W 074°00'1 1.3
2014-Oct-24 10:33N 40°45' W 074°01'7 7.5
2014-Oct-24 09:33N 40°39' W 074°06'2 1.3
2014-Oct-24 08:13N 40°38' W 074°08'0 0.0
2014-Oct-24 02:08N 40°38' W 074°08'0 0.0
2014-Oct-23 23:25N 40°38' W 074°08'0 0.0
2014-Oct-23 22:31N 40°38' W 074°08'0 0.0
2014-Oct-23 21:08N 40°38' W 074°08'0 0.0
2014-Oct-23 17:23N 40°38' W 074°08'0 0.0
2014-Oct-23 16:29N 40°38' W 074°08'0 0.0
2014-Oct-23 15:30N 40°38' W 074°08'3 1.5
2014-Oct-23 13:33N 40°38' W 074°12'2 1.9
2014-Oct-23 12:32N 40°38' W 074°09'1 0.9
2014-Oct-23 11:21N 40°38' W 074°08'0 0.0
2014-Oct-23 10:33N 40°38' W 074°08'0 0.0
2014-Oct-23 09:28N 40°38' W 074°08'0 0.0
2014-Oct-23 08:29N 40°38' W 074°08'0 0.0
2014-Oct-23 07:29N 40°38' W 074°08'0 0.0
2014-Oct-23 06:30N 40°38' W 074°08'0 0.0
2014-Oct-23 05:31N 40°38' W 074°08'0 0.0
2014-Oct-23 04:25N 40°38' W 074°08'0 0.0
2014-Oct-23 03:32N 40°38' W 074°08'0 0.0
2014-Oct-23 02:21N 40°38' W 074°08'0 0.0
2014-Oct-23 01:33N 40°38' W 074°08'0 0.0
2014-Oct-23 00:28N 40°38' W 074°08'0 0.0
2014-Oct-22 23:23N 40°38' W 074°08'0 0.0
2014-Oct-22 22:29N 40°38' W 074°08'4 4.6
2014-Oct-22 21:33N 40°36' W 074°12'4 1.9
2014-Oct-22 19:33N 40°39' W 074°09'1 0.7
2014-Oct-22 18:24N 40°38' W 074°08'0 0.0
2014-Oct-22 17:30N 40°38' W 074°08'0 0.0
2014-Oct-22 16:25N 40°38' W 074°08'0 0.0
2014-Oct-22 15:26N 40°38' W 074°08'1 1.3
2014-Oct-22 14:27N 40°38' W 074°09'1 1.2
2014-Oct-22 13:27N 40°38' W 074°08'0 0.0
2014-Oct-22 12:30N 40°38' W 074°08'0 0.0
2014-Oct-22 11:31N 40°38' W 074°08'1 1.3
2014-Oct-22 10:33N 40°40' W 074°09'1 0.9
2014-Oct-22 09:31N 40°40' W 074°08'2 1.8
2014-Oct-22 08:25N 40°38' W 074°08'0 0.0
2014-Oct-22 07:16N 40°38' W 074°08'0 0.0
2014-Oct-22 06:26N 40°38' W 074°08'0 0.0
2014-Oct-22 02:19N 40°38' W 074°08'0 0.0
2014-Oct-22 01:32N 40°38' W 074°08'1 0.3
2014-Oct-21 23:30N 40°39' W 074°07'1 0.9
2014-Oct-21 22:28N 40°39' W 074°06'2 1.6
2014-Oct-21 21:29N 40°38' W 074°08'0 0.0
2014-Oct-21 18:10N 40°38' W 074°08'0 0.0
2014-Oct-21 17:29N 40°38' W 074°08'1 1.1
2014-Oct-21 16:19N 40°38' W 074°09'0 0.0
2014-Oct-21 15:28N 40°38' W 074°09'1 0.4
2014-Oct-21 12:29N 40°38' W 074°08'0 0.0
2014-Oct-21 11:33N 40°38' W 074°08'2 1.6
2014-Oct-21 10:32N 40°39' W 074°06'2 1.6
2014-Oct-21 09:32N 40°38' W 074°08'0 0.0
2014-Oct-21 08:32N 40°38' W 074°08'0 0.0
2014-Oct-21 07:33N 40°38' W 074°08'0 0.0
2014-Oct-21 03:06N 40°38' W 074°08'0 0.0
2014-Oct-20 22:09N 40°38' W 074°08'0 0.0
2014-Oct-20 21:28N 40°38' W 074°08'0 0.0
2014-Oct-20 20:28N 40°38' W 074°08'0 0.0
2014-Oct-20 19:29N 40°38' W 074°08'  
Track history (hours):
 
Tides and Currents Weather Stations Pressure Air Temp Water Temp Dewpoint Dewpoint Depression Visibility Wind Speed Wind Dir Waves Ship Positions

Al Cenac

Owner: Caillou Island Towing Co, Inc., Houma, LA. More information available from US FCC via Universal Licensing System and Coast Guard Vessel Documentation Center.

Last reported at 2014-Oct-30 12:32 UTC. Time now 2014-Oct-30 13:04 UTC.
Position N 40°39' W 074°06'.

; draft 10 m.

MMSI: 367158530.

Date/timePositionNaut miles runAvg speedWind from/ knotsBaromVisibWave heightAir tempDewpointWater temp
2014-Oct-30 12:32N 40°39' W 074°06'0 0.0
2014-Oct-30 11:30N 40°39' W 074°06'0 0.0
2014-Oct-30 10:31N 40°39' W 074°06'0 0.0
2014-Oct-30 09:31N 40°39' W 074°06'0 0.0
2014-Oct-30 08:32N 40°39' W 074°06'0 0.0
2014-Oct-30 07:33N 40°39' W 074°06'0 0.0
2014-Oct-30 06:33N 40°39' W 074°06'3 2.7
2014-Oct-30 05:27N 40°42' W 074°07'3 2.6
2014-Oct-30 04:29N 40°44' W 074°06'2 2.2
2014-Oct-30 03:33N 40°42' W 074°07'4 3.8
2014-Oct-30 02:33N 40°38' W 074°08'0 0.0
2014-Oct-29 22:21N 40°38' W 074°08'0 0.0
2014-Oct-29 20:13N 40°38' W 074°08'0 0.0
2014-Oct-29 19:32N 40°38' W 074°08'0 0.0
2014-Oct-29 17:03N 40°38' W 074°08'0 0.2
2014-Oct-29 16:33N 40°39' W 074°08'3 2.9
2014-Oct-29 15:21N 40°38' W 074°12'0 0.6
2014-Oct-29 14:32N 40°38' W 074°12'2 0.2
2014-Oct-29 02:18N 40°36' W 074°12'0 0.0
2014-Oct-29 01:21N 40°36' W 074°12'0 0.0
2014-Oct-28 22:23N 40°36' W 074°12'2 0.6
2014-Oct-28 18:21N 40°38' W 074°12'2 0.4
2014-Oct-28 14:32N 40°39' W 074°10'0 0.0
2014-Oct-28 13:25N 40°39' W 074°10'2 1.4
2014-Oct-28 12:18N 40°38' W 074°08'0 0.0
2014-Oct-28 11:33N 40°38' W 074°08'0 0.0
2014-Oct-28 10:22N 40°38' W 074°08'0 0.0
2014-Oct-28 09:32N 40°38' W 074°08'0 0.0
2014-Oct-28 07:33N 40°38' W 074°08'0 0.0
2014-Oct-28 06:31N 40°38' W 074°08'0 0.0
2014-Oct-28 05:28N 40°38' W 074°08'0 0.0
2014-Oct-28 04:23N 40°38' W 074°08'0 0.0
2014-Oct-28 03:18N 40°38' W 074°08'0 0.0
2014-Oct-28 02:30N 40°38' W 074°08'0 0.0
2014-Oct-28 01:19N 40°38' W 074°08'0 0.0
2014-Oct-28 00:08N 40°38' W 074°08'0 0.0
2014-Oct-27 23:08N 40°38' W 074°08'0 0.0
2014-Oct-27 21:16N 40°38' W 074°08'0 0.0
2014-Oct-27 20:04N 40°38' W 074°08'0 0.0
2014-Oct-27 19:23N 40°38' W 074°08'0 0.0
2014-Oct-27 18:29N 40°38' W 074°08'1 1.4
2014-Oct-27 17:33N 40°39' W 074°06'7 7.4
2014-Oct-27 16:33N 40°45' W 074°01'1 1.3
2014-Oct-27 15:33N 40°46' W 074°00'6 6.0
2014-Oct-27 14:34N 40°41' W 074°03'5 4.3
2014-Oct-27 13:31N 40°38' W 074°08'0 0.0
2014-Oct-27 12:31N 40°38' W 074°08'0 0.0
2014-Oct-27 11:32N 40°38' W 074°08'0 0.0
2014-Oct-27 10:33N 40°38' W 074°08'1 1.1
2014-Oct-27 09:33N 40°39' W 074°07'0 0.1
2014-Oct-27 08:33N 40°39' W 074°06'1 0.5
2014-Oct-27 07:31N 40°39' W 074°06'0 0.0
2014-Oct-27 06:32N 40°39' W 074°06'0 0.0
2014-Oct-27 05:33N 40°39' W 074°06'1 0.5
2014-Oct-27 04:06N 40°39' W 074°07'1 1.4
2014-Oct-27 03:26N 40°38' W 074°08'0 0.0
2014-Oct-27 00:16N 40°38' W 074°08'0 0.0
2014-Oct-26 23:17N 40°38' W 074°08'0 0.0
2014-Oct-26 20:30N 40°38' W 074°08'0 0.0
2014-Oct-26 18:26N 40°38' W 074°08'0 0.0
2014-Oct-26 14:06N 40°38' W 074°08'0 0.0
2014-Oct-26 13:30N 40°38' W 074°08'4 4.1
2014-Oct-26 12:29N 40°36' W 074°12'4 2.1
2014-Oct-26 10:29N 40°38' W 074°08'0 0.0
2014-Oct-26 09:32N 40°38' W 074°08'0 0.0
2014-Oct-26 07:28N 40°38' W 074°08'0 0.0
2014-Oct-26 05:23N 40°38' W 074°08'0 0.0
2014-Oct-26 00:14N 40°38' W 074°08'2 0.4
2014-Oct-25 18:33N 40°39' W 074°05'10 9.7
2014-Oct-25 17:30N 40°47' W 073°56'2 0.7
2014-Oct-25 14:28N 40°48' W 073°54'5 5.9
2014-Oct-25 13:33N 40°44' W 073°58'3 2.6
2014-Oct-25 12:32N 40°46' W 073°60'0 0.3
2014-Oct-25 11:31N 40°46' W 074°00'5 5.0
2014-Oct-25 10:34N 40°42' W 074°00'0 0.3
2014-Oct-25 09:30N 40°41' W 074°00'0 0.0
2014-Oct-25 08:33N 40°41' W 074°00'0 0.0
2014-Oct-25 07:31N 40°41' W 074°00'0 0.0
2014-Oct-25 06:31N 40°41' W 074°00'0 0.0
2014-Oct-25 05:32N 40°41' W 074°00'0 0.0
2014-Oct-25 04:33N 40°41' W 074°00'2 2.0
2014-Oct-25 03:34N 40°43' W 073°59'3 2.6
2014-Oct-25 02:33N 40°45' W 073°58'4 4.2
2014-Oct-25 01:29N 40°41' W 074°00'0 0.0
2014-Oct-25 00:32N 40°41' W 074°00'0 0.0
2014-Oct-24 23:30N 40°41' W 074°00'3 2.7
2014-Oct-24 22:34N 40°40' W 074°03'2 1.0
2014-Oct-24 20:33N 40°39' W 074°06'4 3.2
2014-Oct-24 19:26N 40°39' W 074°10'0 0.2
2014-Oct-24 18:34N 40°39' W 074°11'2 1.0
2014-Oct-24 16:30N 40°38' W 074°08'0 0.0
2014-Oct-24 15:31N 40°38' W 074°08'0 0.0
2014-Oct-24 14:32N 40°38' W 074°08'0 0.0
2014-Oct-24 13:14N 40°38' W 074°08'4 6.6
2014-Oct-24 12:33N 40°41' W 074°03'6 5.0
2014-Oct-24 11:22N 40°46' W 074°00'1 1.3
2014-Oct-24 10:33N 40°45' W 074°01'7 7.5
2014-Oct-24 09:33N 40°39' W 074°06'2 1.3
2014-Oct-24 08:13N 40°38' W 074°08'0 0.0
2014-Oct-24 02:08N 40°38' W 074°08'0 0.0
2014-Oct-23 23:25N 40°38' W 074°08'0 0.0
2014-Oct-23 22:31N 40°38' W 074°08'0 0.0
2014-Oct-23 21:08N 40°38' W 074°08'0 0.0
2014-Oct-23 17:23N 40°38' W 074°08'0 0.0
2014-Oct-23 16:29N 40°38' W 074°08'0 0.0
2014-Oct-23 15:30N 40°38' W 074°08'3 1.5
2014-Oct-23 13:33N 40°38' W 074°12'2 1.9
2014-Oct-23 12:32N 40°38' W 074°09'1 0.9
2014-Oct-23 11:21N 40°38' W 074°08'0 0.0
2014-Oct-23 10:33N 40°38' W 074°08'0 0.0
2014-Oct-23 09:28N 40°38' W 074°08'0 0.0
2014-Oct-23 08:29N 40°38' W 074°08'0 0.0
2014-Oct-23 07:29N 40°38' W 074°08'0 0.0
2014-Oct-23 06:30N 40°38' W 074°08'0 0.0
2014-Oct-23 05:31N 40°38' W 074°08'0 0.0
2014-Oct-23 04:25N 40°38' W 074°08'0 0.0
2014-Oct-23 03:32N 40°38' W 074°08'0 0.0
2014-Oct-23 02:21N 40°38' W 074°08'0 0.0
2014-Oct-23 01:33N 40°38' W 074°08'0 0.0
2014-Oct-23 00:28N 40°38' W 074°08'0 0.0
2014-Oct-22 23:23N 40°38' W 074°08'0 0.0
2014-Oct-22 22:29N 40°38' W 074°08'4 4.6
2014-Oct-22 21:33N 40°36' W 074°12'4 1.9
2014-Oct-22 19:33N 40°39' W 074°09'1 0.7
2014-Oct-22 18:24N 40°38' W 074°08'0 0.0
2014-Oct-22 17:30N 40°38' W 074°08'0 0.0
2014-Oct-22 16:25N 40°38' W 074°08'0 0.0
2014-Oct-22 15:26N 40°38' W 074°08'1 1.3
2014-Oct-22 14:27N 40°38' W 074°09'1 1.2
2014-Oct-22 13:27N 40°38' W 074°08'0 0.0
2014-Oct-22 12:30N 40°38' W 074°08'0 0.0
2014-Oct-22 11:31N 40°38' W 074°08'1 1.3
2014-Oct-22 10:33N 40°40' W 074°09'1 0.9
2014-Oct-22 09:31N 40°40' W 074°08'2 1.8
2014-Oct-22 08:25N 40°38' W 074°08'0 0.0
2014-Oct-22 07:16N 40°38' W 074°08'0 0.0
2014-Oct-22 06:26N 40°38' W 074°08'0 0.0
2014-Oct-22 02:19N 40°38' W 074°08'0 0.0
2014-Oct-22 01:32N 40°38' W 074°08'1 0.3
2014-Oct-21 23:30N 40°39' W 074°07'1 0.9
2014-Oct-21 22:28N 40°39' W 074°06'2 1.6
2014-Oct-21 21:29N 40°38' W 074°08'0 0.0
2014-Oct-21 18:10N 40°38' W 074°08'0 0.0
2014-Oct-21 17:29N 40°38' W 074°08'1 1.1
2014-Oct-21 16:19N 40°38' W 074°09'0 0.0
2014-Oct-21 15:28N 40°38' W 074°09'1 0.4
2014-Oct-21 12:29N 40°38' W 074°08'0 0.0
2014-Oct-21 11:33N 40°38' W 074°08'2 1.6
2014-Oct-21 10:32N 40°39' W 074°06'2 1.6
2014-Oct-21 09:32N 40°38' W 074°08'0 0.0
2014-Oct-21 08:32N 40°38' W 074°08'0 0.0
2014-Oct-21 07:33N 40°38' W 074°08'0 0.0
2014-Oct-21 03:06N 40°38' W 074°08'0 0.0
2014-Oct-20 22:09N 40°38' W 074°08'0 0.0
2014-Oct-20 21:28N 40°38' W 074°08'0 0.0
2014-Oct-20 20:28N 40°38' W 074°08'0 0.0
2014-Oct-20 19:29N 40°38' W 074°08'  

Dump ship's entire track history